Afton, Michigan
Current Conditions -  °F | °C
As of 1:56 PM on Thursday 30 Oct 2014 (Local Time) from KSLH Reporting Station
Light Rain Light Rain  
Wind Chill: 41°   Ceiling: 2900
Heat Index: 44°   Visibility: 10mi
Dew Point: 37°   Wind: 6mph
Humidity: 78%   Direction: 200°SSW
Pressure: 30.03"   Gusts: NA
Location:  45.36°N, 84.47°W
Report Text: KSLH 301756Z AUTO 20005KT 10SM -RA SCT021 OVC029 06/03 A3003 RMK AO2 T00660030
Loading
Personal Weather Stations






























Interactive Weather Map
Tropical Storm Tracking
New forecast layout! Learn more

10-Day Weather Forecast

Advertisements
Track Severe Weather on mobile